createdAt,value
2022-12-03T09:12:42.709Z,63.65
2022-12-03T09:15:13.461Z,19.13
2022-12-03T09:17:44.200Z,32.13
2022-12-03T09:20:17.089Z,29.83
2022-12-03T09:22:47.933Z,31.77
2022-12-03T09:25:18.732Z,29.13
2022-12-03T09:27:49.070Z,28.67
2022-12-03T09:30:19.540Z,23.77
2022-12-03T09:32:49.770Z,32.63
2022-12-03T09:35:20.182Z,20.58
2022-12-03T09:37:50.289Z,17.65
2022-12-03T09:40:20.603Z,26.60
2022-12-03T09:42:51.071Z,22.67
2022-12-03T09:45:22.296Z,24.98
2022-12-03T09:47:53.360Z,195.20
2022-12-03T09:50:27.231Z,569.22
2022-12-03T09:53:01.233Z,539.47
2022-12-03T09:55:32.403Z,553.92
2022-12-03T09:58:03.016Z,637.10
2022-12-03T10:00:33.441Z,734.35
2022-12-03T10:03:07.237Z,691.58
2022-12-03T10:05:37.762Z,659.28
2022-12-03T10:08:17.729Z,547.22
2022-12-03T10:10:48.576Z,564.70
2022-12-03T10:13:33.233Z,543.78
2022-12-03T10:16:05.294Z,545.67
2022-12-03T10:18:41.608Z,541.78
2022-12-03T10:21:21.821Z,544.03
2022-12-03T10:23:55.443Z,559.33
2022-12-03T10:26:42.698Z,548.90
2022-12-03T10:29:18.058Z,544.00
2022-12-03T10:31:49.972Z,540.38
2022-12-03T10:34:34.713Z,525.58
2022-12-03T10:37:24.960Z,562.00
2022-12-03T10:40:00.016Z,523.60
2022-12-03T10:42:36.030Z,545.25
2022-12-03T10:45:17.650Z,554.33
2022-12-03T10:48:22.625Z,528.00
2022-12-03T10:51:07.250Z,549.80
2022-12-03T10:53:40.853Z,569.20
2022-12-03T10:56:17.474Z,562.85
2022-12-03T10:58:47.563Z,564.00
2022-12-03T11:01:28.414Z,540.50
2022-12-03T11:04:06.460Z,558.63
2022-12-03T11:06:36.692Z,526.28
2022-12-03T11:09:09.330Z,530.85
2022-12-03T11:11:39.636Z,537.63
2022-12-03T11:14:15.659Z,547.55
2022-12-03T11:16:50.317Z,553.88
2022-12-03T11:19:40.214Z,555.05
2022-12-03T11:22:13.046Z,566.45
2022-12-03T11:24:43.371Z,552.53
2022-12-03T11:27:13.882Z,557.70
2022-12-03T11:29:54.009Z,564.35
2022-12-03T11:35:27.829Z,561.17
2022-12-03T11:37:58.332Z,544.00
2022-12-03T11:40:34.772Z,561.13
2022-12-03T11:44:00.379Z,572.40
2022-12-03T11:46:34.920Z,372.35
2022-12-03T11:49:17.289Z,454.40
2022-12-03T11:51:47.651Z,584.88
2022-12-03T11:54:20.189Z,732.90
2022-12-03T11:56:52.240Z,675.97
2022-12-03T12:01:52.058Z,598.70
2022-12-03T12:04:45.163Z,605.40
2022-12-03T12:07:15.336Z,619.15
2022-12-03T12:09:57.585Z,651.03
2022-12-03T12:12:34.095Z,642.08
2022-12-03T12:15:42.209Z,643.55
2022-12-03T12:18:41.479Z,630.25
2022-12-03T12:21:59.561Z,661.65
2022-12-03T12:24:42.841Z,642.20
2022-12-03T12:27:15.359Z,616.53
2022-12-03T12:30:07.071Z,621.17
2022-12-03T12:32:47.067Z,606.13
2022-12-03T12:35:31.735Z,628.42
2022-12-03T12:41:04.875Z,602.58
2022-12-03T12:43:37.540Z,627.42
2022-12-03T12:46:46.636Z,629.80
2022-12-03T12:49:23.803Z,611.53
2022-12-03T12:51:54.093Z,603.50
2022-12-03T12:54:24.290Z,628.45
2022-12-03T12:57:19.155Z,606.00
2022-12-03T12:59:49.608Z,630.45
2022-12-03T13:02:28.615Z,616.28
2022-12-03T13:05:18.002Z,605.75
2022-12-03T13:07:49.039Z,614.22
2022-12-03T13:10:36.295Z,608.60
2022-12-03T13:13:44.105Z,642.83
2022-12-03T13:16:35.312Z,611.10
2022-12-03T13:19:14.508Z,613.35
2022-12-03T13:21:48.278Z,614.78
2022-12-03T13:27:50.539Z,621.45
2022-12-03T13:30:23.135Z,616.88
2022-12-03T13:32:53.347Z,633.95
2022-12-03T13:35:33.627Z,660.72
2022-12-03T13:38:04.276Z,662.30
2022-12-03T13:40:38.559Z,546.67
2022-12-03T13:43:21.318Z,657.97
2022-12-03T13:45:53.673Z,663.63
2022-12-03T13:48:36.975Z,636.92
2022-12-03T13:51:29.498Z,646.65
2022-12-03T13:54:02.459Z,667.15
2022-12-03T13:56:34.879Z,639.35
2022-12-03T13:59:06.533Z,635.85
2022-12-03T14:01:36.816Z,643.63
2022-12-03T14:04:07.407Z,642.67
2022-12-03T14:06:37.738Z,641.80
2022-12-03T14:12:13.819Z,638.97
2022-12-03T14:14:44.128Z,637.50
2022-12-03T14:17:14.531Z,651.55
2022-12-03T14:19:45.566Z,647.95
2022-12-03T14:22:34.059Z,632.20
2022-12-03T14:25:04.254Z,627.00
2022-12-03T14:27:34.494Z,647.88
2022-12-03T14:30:05.771Z,618.30
2022-12-03T14:32:36.201Z,616.83
2022-12-03T14:35:09.845Z,625.23
2022-12-03T14:37:40.570Z,644.95
2022-12-03T14:40:14.196Z,645.40
2022-12-03T14:42:46.806Z,639.35
2022-12-03T14:45:17.152Z,464.33
2022-12-03T14:47:47.489Z,406.47
2022-12-03T14:50:17.752Z,607.42
2022-12-03T14:52:47.946Z,618.58
2022-12-03T14:55:21.053Z,635.38
2022-12-03T14:57:51.275Z,648.55
2022-12-03T15:00:22.064Z,649.75
2022-12-03T15:02:53.047Z,652.05
2022-12-03T15:05:41.665Z,665.45
2022-12-03T15:08:14.772Z,657.10
2022-12-03T15:10:45.044Z,658.25
2022-12-03T15:13:15.587Z,662.65
2022-12-03T15:15:45.781Z,622.90
2022-12-03T15:18:16.090Z,634.90
2022-12-03T15:20:46.369Z,649.95
2022-12-03T15:23:16.611Z,639.65
2022-12-03T15:25:46.978Z,636.78
2022-12-03T15:28:17.185Z,650.53
2022-12-03T15:30:47.747Z,612.25
2022-12-03T15:33:18.263Z,616.47
2022-12-03T15:35:49.436Z,612.07
2022-12-03T15:38:19.730Z,499.65
2022-12-03T15:40:50.109Z,227.80
2022-12-03T15:43:20.514Z,412.08
2022-12-03T15:45:51.073Z,407.40
2022-12-03T15:48:21.404Z,245.33
2022-12-03T15:50:51.719Z,341.10
2022-12-03T15:53:21.793Z,339.63
2022-12-03T15:55:51.940Z,340.27
2022-12-03T15:59:23.580Z,7.07
2022-12-03T16:01:53.938Z,7.97
2022-12-03T16:04:24.267Z,7.80
2022-12-03T16:06:54.568Z,7.65
2022-12-03T16:09:42.989Z,7.95
2022-12-03T16:12:13.330Z,7.87
2022-12-03T16:14:43.572Z,7.35
2022-12-03T16:17:13.949Z,7.35
2022-12-03T16:19:44.415Z,7.33
2022-12-03T16:22:15.400Z,8.27
2022-12-03T16:24:45.793Z,8.65
2022-12-03T16:27:15.991Z,8.38
2022-12-03T16:29:46.054Z,8.23
2022-12-03T16:32:16.483Z,8.13
2022-12-03T16:34:46.728Z,8.50
2022-12-03T16:37:17.051Z,8.63
2022-12-03T16:39:50.683Z,7.32
2022-12-03T16:42:20.972Z,8.50
2022-12-03T16:45:17.005Z,9.43
2022-12-03T16:47:47.278Z,8.85
2022-12-03T16:50:24.481Z,9.38
2022-12-03T16:52:59.508Z,9.40
2022-12-03T16:55:29.821Z,9.50
2022-12-03T16:58:00.248Z,8.80
2022-12-03T17:00:31.168Z,8.85
2022-12-03T17:03:01.552Z,9.10
2022-12-03T17:05:31.985Z,8.80
2022-12-03T17:08:02.151Z,8.63
2022-12-03T17:10:32.778Z,8.67
2022-12-03T17:13:10.824Z,9.02
2022-12-03T17:15:42.392Z,9.10
2022-12-03T17:18:30.552Z,8.20
2022-12-03T17:21:00.822Z,8.60
2022-12-03T17:23:30.832Z,7.90
2022-12-03T17:26:01.043Z,7.53
2022-12-03T17:28:31.476Z,8.40
2022-12-03T17:31:01.778Z,8.32
2022-12-03T17:33:32.037Z,8.98
2022-12-03T17:36:03.604Z,8.35
2022-12-03T17:38:39.065Z,7.97
2022-12-03T17:41:10.156Z,8.27
2022-12-03T17:43:40.364Z,8.05
2022-12-03T17:46:10.790Z,8.48
2022-12-03T17:48:42.819Z,8.17
2022-12-03T17:51:13.160Z,9.00
2022-12-03T17:53:43.302Z,7.85
2022-12-03T17:56:13.284Z,8.48
2022-12-03T17:58:43.294Z,8.32
2022-12-03T18:01:13.694Z,8.13
2022-12-03T18:03:43.896Z,8.37
2022-12-03T18:06:14.121Z,8.02
2022-12-03T18:08:44.109Z,7.53
2022-12-03T18:11:14.285Z,8.18
2022-12-03T18:13:44.502Z,7.25
2022-12-03T18:16:14.769Z,7.53
2022-12-03T18:18:45.045Z,7.85
2022-12-03T18:21:15.851Z,7.95
2022-12-03T18:23:45.991Z,6.97
2022-12-03T18:26:16.252Z,8.07
2022-12-03T18:28:46.559Z,7.67
2022-12-03T18:31:19.048Z,7.53
2022-12-03T18:33:49.832Z,7.82
2022-12-03T18:36:28.231Z,8.75
2022-12-03T18:39:00.352Z,7.97
2022-12-03T18:41:31.235Z,8.40
2022-12-03T18:44:01.741Z,7.85
2022-12-03T18:47:01.747Z,8.30
2022-12-03T18:49:23.148Z,7.80
2022-12-03T18:51:58.980Z,7.82
2022-12-03T18:54:30.254Z,7.53
2022-12-03T18:57:00.434Z,7.93
2022-12-03T18:59:30.818Z,8.63
2022-12-03T19:02:01.132Z,7.32
2022-12-03T19:04:32.905Z,7.53
2022-12-03T19:07:03.167Z,7.55
2022-12-03T19:09:33.243Z,7.88
2022-12-03T19:12:03.419Z,7.35
2022-12-03T19:14:33.645Z,7.97
2022-12-03T19:17:04.947Z,7.05
2022-12-03T19:22:04.982Z,7.13
2022-12-03T19:24:35.236Z,6.78
2022-12-03T19:27:05.612Z,7.82
2022-12-03T19:29:35.764Z,7.57
2022-12-03T19:32:05.936Z,7.43
2022-12-03T19:34:37.581Z,7.90
2022-12-03T19:37:07.715Z,7.65
2022-12-03T19:39:37.687Z,7.75
2022-12-03T19:42:08.087Z,7.85
2022-12-03T19:44:38.460Z,7.43
2022-12-03T19:47:27.279Z,7.53
2022-12-03T19:49:57.625Z,7.63
2022-12-03T19:52:28.091Z,6.90
2022-12-03T19:54:58.220Z,6.72
2022-12-03T19:57:30.016Z,6.70
2022-12-03T20:00:00.707Z,7.70
2022-12-03T20:02:32.808Z,6.90
2022-12-03T20:05:02.924Z,6.40
2022-12-03T20:07:32.940Z,6.88
2022-12-03T20:10:03.115Z,6.85
2022-12-03T20:12:33.483Z,6.90
2022-12-03T20:15:03.630Z,6.40
2022-12-03T20:17:33.571Z,6.38
2022-12-03T20:20:03.551Z,6.20
2022-12-03T20:22:33.486Z,6.40
2022-12-03T20:25:05.960Z,6.32
2022-12-03T20:27:36.183Z,5.70
2022-12-03T20:30:07.366Z,6.40
2022-12-03T20:32:43.584Z,5.80
2022-12-03T20:35:15.388Z,7.00
2022-12-03T20:37:45.401Z,6.63
2022-12-03T20:40:15.591Z,6.07
2022-12-03T20:42:50.506Z,6.18
2022-12-03T20:45:20.783Z,5.43
2022-12-03T20:47:50.931Z,5.55
2022-12-03T20:50:20.917Z,5.78
2022-12-03T20:53:16.169Z,5.30
2022-12-03T20:55:41.814Z,6.07
2022-12-03T20:58:12.922Z,5.15
2022-12-03T21:00:43.091Z,5.97
2022-12-03T21:03:13.274Z,5.90
2022-12-03T21:05:48.993Z,5.72
2022-12-03T21:08:39.660Z,5.47
2022-12-03T21:11:18.192Z,5.72
2022-12-03T21:13:50.776Z,5.20
2022-12-03T21:16:52.136Z,5.45
2022-12-03T21:19:20.490Z,5.60
2022-12-03T21:21:51.229Z,5.10
2022-12-03T21:24:21.444Z,5.13
2022-12-03T21:26:53.267Z,5.93
2022-12-03T21:29:24.441Z,5.32
2022-12-03T21:31:54.583Z,5.90
2022-12-03T21:34:24.762Z,5.20
2022-12-03T21:36:54.879Z,5.28
2022-12-03T21:39:26.119Z,5.28
2022-12-03T21:42:22.372Z,5.30
2022-12-03T21:44:46.316Z,5.20
2022-12-03T21:47:17.352Z,5.63
2022-12-03T21:49:47.675Z,5.85
2022-12-03T21:52:17.676Z,5.20
2022-12-03T21:54:47.826Z,5.72
2022-12-03T21:57:17.816Z,5.28
2022-12-03T21:59:47.948Z,5.53
2022-12-03T22:02:18.292Z,6.03
2022-12-03T22:04:52.737Z,5.75
2022-12-03T22:07:23.262Z,6.22
2022-12-03T22:09:53.676Z,5.40
2022-12-03T22:12:24.093Z,5.37
2022-12-03T22:14:54.146Z,5.85
2022-12-03T22:17:24.122Z,5.20
2022-12-03T22:19:54.552Z,6.00
2022-12-03T22:22:26.612Z,6.15
2022-12-03T22:24:56.835Z,5.90
2022-12-03T22:27:26.995Z,5.97
2022-12-03T22:29:57.285Z,5.63
2022-12-03T22:32:30.799Z,5.80
2022-12-03T22:35:01.303Z,5.88
2022-12-03T22:37:32.297Z,6.23
2022-12-03T22:40:02.742Z,6.15
2022-12-03T22:42:33.343Z,7.13
2022-12-03T22:45:03.495Z,6.80
2022-12-03T22:47:34.790Z,6.00
2022-12-03T22:52:35.699Z,6.90
2022-12-03T22:55:06.545Z,7.07
2022-12-03T22:57:36.719Z,6.70
2022-12-03T23:00:12.620Z,6.82
2022-12-03T23:02:43.066Z,6.57
2022-12-03T23:05:13.263Z,6.70
2022-12-03T23:07:43.291Z,6.30
2022-12-03T23:10:13.723Z,7.28
2022-12-03T23:12:43.967Z,7.13
2022-12-03T23:18:02.347Z,7.00
2022-12-03T23:20:32.557Z,7.07
2022-12-03T23:23:02.891Z,7.55
2022-12-03T23:25:33.299Z,7.30
2022-12-03T23:28:03.621Z,7.93
2022-12-03T23:30:36.966Z,8.00
2022-12-03T23:33:08.546Z,7.88
2022-12-03T23:38:11.714Z,9.35
2022-12-03T23:40:47.696Z,9.57
2022-12-03T23:43:19.194Z,9.02
2022-12-03T23:45:50.035Z,9.00
2022-12-03T23:48:20.502Z,9.23
2022-12-03T23:50:50.590Z,9.82
2022-12-03T23:54:40.229Z,10.40
2022-12-03T23:57:10.484Z,11.95
2022-12-03T23:59:41.602Z,11.55
